Time;durP1;ratioP1;P1;durP2;ratioP2;P2;SDS_P1;SDS_P2;PMS_P1;PMS_P2;Temp;Humidity;BMP_temperature;BMP_pressure;BME280_temperature;BME280_humidity;BME280_pressure;Samples;Min_cycle;Max_cycle;Signal;HPM_P1;HPM_P2
2021/06/02 00:02:06;;;;;;;2.45;1.50;;;22.70;48.60;;;;;;5068340;28;20119;-77
2021/06/02 00:04:42;;;;;;;3.25;1.60;;;22.80;48.50;;;;;;5067918;28;20094;-77
2021/06/02 00:07:10;;;;;;;4.82;1.75;;;22.70;48.50;;;;;;5050017;28;20025;-78
2021/06/02 00:09:38;;;;;;;12.10;2.08;;;22.70;48.60;;;;;;5049432;28;20043;-77
2021/06/02 00:12:10;;;;;;;8.38;1.92;;;22.70;48.70;;;;;;5052058;28;20075;-76
2021/06/02 00:14:37;;;;;;;4.53;1.00;;;22.60;49.50;;;;;;5067239;28;20108;-77
2021/06/02 00:17:06;;;;;;;3.42;1.52;;;22.50;49.10;;;;;;5064773;28;20033;-77
2021/06/02 00:19:33;;;;;;;7.68;2.10;;;22.60;49.10;;;;;;5063047;28;20057;-76
2021/06/02 00:22:01;;;;;;;4.60;1.92;;;22.70;49.00;;;;;;5052749;28;20426;-77
2021/06/02 00:24:28;;;;;;;4.63;1.20;;;22.60;49.10;;;;;;5067812;28;20035;-77
2021/06/02 00:26:58;;;;;;;7.40;2.88;;;22.70;49.00;;;;;;5050193;28;20032;-77
2021/06/02 00:29:31;;;;;;;5.80;2.13;;;22.70;49.10;;;;;;5072333;28;20028;-77
2021/06/02 00:31:58;;;;;;;6.72;1.23;;;22.70;49.00;;;;;;5069583;28;20047;-79
2021/06/02 00:34:26;;;;;;;4.00;1.80;;;22.70;49.10;;;;;;5051682;28;20360;-77
2021/06/02 00:36:53;;;;;;;3.70;1.75;;;22.60;49.50;;;;;;5053897;28;20029;-78
2021/06/02 00:39:20;;;;;;;4.50;1.17;;;22.70;49.20;;;;;;5071028;28;20051;-77
2021/06/02 00:41:47;;;;;;;4.45;1.58;;;22.70;49.10;;;;;;5065789;28;20028;-77
2021/06/02 00:44:16;;;;;;;5.20;1.70;;;22.70;49.10;;;;;;5068719;28;20158;-77
2021/06/02 00:46:44;;;;;;;3.03;1.52;;;22.60;49.20;;;;;;5050619;28;20367;-78
2021/06/02 00:49:12;;;;;;;6.07;1.80;;;22.60;49.20;;;;;;5054446;28;20033;-77
2021/06/02 00:51:39;;;;;;;3.70;1.35;;;22.60;49.30;;;;;;5071871;28;20494;-77
2021/06/02 00:54:06;;;;;;;3.35;1.55;;;22.40;49.50;;;;;;5051482;28;20032;-78
2021/06/02 00:56:52;;;;;;;5.55;2.00;;;22.50;49.70;;;;;;5063926;28;20025;-77
2021/06/02 00:59:31;;;;;;;4.30;1.42;;;22.50;49.60;;;;;;5065696;28;20067;-77
2021/06/02 01:01:59;;;;;;;4.10;1.83;;;22.40;49.80;;;;;;5063795;28;20032;-77
2021/06/02 01:04:26;;;;;;;2.90;1.25;;;22.20;50.00;;;;;;5062456;28;20029;-77
2021/06/02 01:06:54;;;;;;;7.82;3.22;;;22.40;49.90;;;;;;5065819;28;20036;-78
2021/06/02 01:09:25;;;;;;;6.30;1.15;;;22.40;50.20;;;;;;5067082;28;20035;-78
2021/06/02 01:11:53;;;;;;;8.05;1.80;;;22.30;50.40;;;;;;5047254;28;20055;-77
2021/06/02 01:14:21;;;;;;;7.43;1.30;;;22.40;50.40;;;;;;5068829;28;21526;-77
2021/06/02 01:16:50;;;;;;;4.28;1.30;;;22.50;50.20;;;;;;5069387;28;20074;-76
2021/06/02 01:19:22;;;;;;;5.50;2.05;;;22.60;50.20;;;;;;5070740;28;20044;-77
2021/06/02 01:21:55;;;;;;;;;;;22.60;49.90;;;;;;5063709;28;20432;-77
2021/06/02 01:24:25;;;;;;;4.00;1.92;;;22.70;49.60;;;;;;5060144;28;20263;-78
2021/06/02 01:26:54;;;;;;;7.07;2.17;;;22.60;49.40;;;;;;5047319;28;20464;-79
2021/06/02 01:29:22;;;;;;;3.85;1.40;;;22.60;49.60;;;;;;5047186;28;20033;-77
2021/06/02 01:32:10;;;;;;;3.30;1.40;;;22.50;49.50;;;;;;5064634;28;20021;-76
2021/06/02 01:35:02;;;;;;;2.95;1.48;;;22.50;49.60;;;;;;5064504;28;20422;-77
2021/06/02 01:37:50;;;;;;;5.43;1.67;;;22.30;49.80;;;;;;5064971;28;20376;-78
2021/06/02 01:40:34;;;;;;;4.93;2.03;;;22.20;50.30;;;;;;5063510;28;20033;-79
2021/06/02 01:43:16;;;;;;;3.45;2.13;;;22.30;50.20;;;;;;5064087;28;20056;-78
2021/06/02 01:46:29;;;;;;;6.28;1.10;;;22.20;50.40;;;;;;5062136;28;20025;-77
2021/06/02 01:49:29;;;;;;;5.35;1.83;;;22.20;50.20;;;;;;5067996;28;20501;-77
2021/06/02 01:52:32;;;;;;;3.55;1.33;;;22.20;50.20;;;;;;5062833;28;20039;-77
2021/06/02 01:55:29;;;;;;;4.28;1.27;;;22.00;50.50;;;;;;5066033;28;20032;-78
2021/06/02 01:58:32;;;;;;;7.00;1.63;;;21.90;50.50;;;;;;5063609;28;20475;-78
2021/06/02 02:01:43;;;;;;;6.18;1.58;;;21.80;50.50;;;;;;5063903;28;20425;-77
2021/06/02 02:04:24;;;;;;;5.38;2.33;;;21.60;50.90;;;;;;5062549;28;20032;-78
2021/06/02 02:07:22;;;;;;;4.50;1.50;;;21.50;51.20;;;;;;5064904;28;20021;-77
2021/06/02 02:10:13;;;;;;;7.22;1.60;;;21.40;51.50;;;;;;5051531;28;20033;-78
2021/06/02 02:12:54;;;;;;;3.83;1.30;;;21.10;51.70;;;;;;5063283;28;20032;-77
2021/06/02 02:15:24;;;;;;;6.63;1.60;;;20.90;52.10;;;;;;5070972;28;20033;-77
2021/06/02 02:18:05;;;;;;;8.23;1.77;;;21.00;52.40;;;;;;5089160;28;20031;-77
2021/06/02 02:20:49;;;;;;;2.78;1.40;;;20.80;52.90;;;;;;5069634;28;20131;-77
2021/06/02 02:23:25;;;;;;;4.90;1.25;;;20.50;52.80;;;;;;5069588;28;20029;-78
2021/06/02 02:26:12;;;;;;;3.47;1.67;;;20.50;53.30;;;;;;5067443;28;20040;-77
2021/06/02 02:28:59;;;;;;;1.63;1.20;;;20.30;53.30;;;;;;5063199;28;20029;-78
2021/06/02 02:31:35;;;;;;;2.45;1.80;;;20.20;53.20;;;;;;5063405;28;20028;-76
2021/06/02 02:34:11;;;;;;;3.05;1.48;;;20.10;53.40;;;;;;5044906;28;20025;-77
2021/06/02 02:36:48;;;;;;;2.45;1.48;;;20.10;53.90;;;;;;5056066;28;20029;-77
2021/06/02 02:39:40;;;;;;;3.30;1.75;;;19.80;53.80;;;;;;5063490;28;20112;-77
2021/06/02 02:42:46;;;;;;;4.50;1.40;;;19.70;54.40;;;;;;5069797;28;20025;-76
2021/06/02 02:45:30;;;;;;;3.08;1.77;;;19.70;54.60;;;;;;4981854;28;20114;-77
2021/06/02 02:48:14;;;;;;;2.30;1.70;;;19.50;54.50;;;;;;5073072;28;20467;-78
2021/06/02 02:50:50;;;;;;;5.88;1.77;;;19.70;54.60;;;;;;5070053;28;20340;-77
2021/06/02 02:53:31;;;;;;;4.25;1.77;;;19.30;55.40;;;;;;5072841;28;20049;-76
2021/06/02 02:56:18;;;;;;;8.43;2.50;;;19.10;55.20;;;;;;5068434;28;20027;-77
2021/06/02 02:59:21;;;;;;;2.08;1.40;;;19.20;56.40;;;;;;5075549;28;20028;-77
2021/06/02 03:02:04;;;;;;;2.60;1.70;;;19.00;55.80;;;;;;5076498;28;20028;-76
2021/06/02 03:04:53;;;;;;;5.97;1.45;;;18.90;55.60;;;;;;5067503;28;20036;-76
2021/06/02 03:07:21;;;;;;;5.93;2.15;;;18.80;56.60;;;;;;5067399;28;20036;-77
2021/06/02 03:10:14;;;;;;;7.47;2.25;;;18.60;57.20;;;;;;5068226;28;20052;-76
2021/06/02 03:13:02;;;;;;;5.82;1.98;;;18.60;57.40;;;;;;5066856;28;20021;-76
2021/06/02 03:15:51;;;;;;;5.00;2.28;;;18.60;57.80;;;;;;5066060;28;20365;-77
2021/06/02 03:18:39;;;;;;;4.72;1.65;;;18.30;58.00;;;;;;5052568;28;20036;-77
2021/06/02 03:21:28;;;;;;;2.65;1.50;;;18.10;59.00;;;;;;5074819;28;20032;-77
2021/06/02 03:24:10;;;;;;;6.00;1.67;;;18.30;57.80;;;;;;5057760;28;20047;-77
2021/06/02 03:26:40;;;;;;;3.72;1.83;;;18.20;57.70;;;;;;5070273;28;20089;-76
2021/06/02 03:29:16;;;;;;;4.88;1.55;;;18.20;57.70;;;;;;5075309;28;20456;-76
2021/06/02 03:32:11;;;;;;;3.63;2.10;;;18.20;58.30;;;;;;5055361;28;20456;-78
2021/06/02 03:34:57;;;;;;;5.20;2.45;;;18.10;57.90;;;;;;5072835;28;20408;-77
2021/06/02 03:37:43;;;;;;;6.78;1.90;;;18.00;58.40;;;;;;5007408;28;20460;-77
2021/06/02 03:40:41;;;;;;;6.38;1.73;;;17.90;58.40;;;;;;5066078;28;20040;-77
2021/06/02 03:43:20;;;;;;;6.57;1.50;;;17.90;57.80;;;;;;5073643;28;20059;-76
2021/06/02 03:45:58;;;;;;;2.70;1.60;;;17.70;59.60;;;;;;5075460;28;20021;-79
2021/06/02 03:49:02;;;;;;;4.70;1.75;;;17.80;59.00;;;;;;5071888;28;20325;-80
2021/06/02 03:51:49;;;;;;;3.22;2.15;;;18.00;59.20;;;;;;5069643;28;20028;-78
2021/06/02 03:54:34;;;;;;;2.60;1.50;;;17.80;58.70;;;;;;5056988;28;20038;-77
2021/06/02 03:57:28;;;;;;;7.03;1.73;;;17.60;58.80;;;;;;5052905;28;20040;-79
2021/06/02 04:00:12;;;;;;;4.28;1.60;;;17.70;59.60;;;;;;5058047;28;20382;-78
2021/06/02 04:02:57;;;;;;;2.75;1.83;;;17.70;60.00;;;;;;5053003;28;20039;-78
2021/06/02 04:06:01;;;;;;;8.40;1.77;;;17.40;58.40;;;;;;5065047;28;20040;-77
2021/06/02 04:08:48;;;;;;;4.05;1.90;;;17.40;61.20;;;;;;5055927;28;20326;-78
2021/06/02 04:11:14;;;;;;;6.00;1.92;;;17.30;61.00;;;;;;5071800;28;20045;-79
2021/06/02 04:13:44;;;;;;;3.13;1.73;;;17.20;60.20;;;;;;5062657;28;20028;-76
2021/06/02 04:16:17;;;;;;;2.55;1.75;;;17.10;61.50;;;;;;5057672;28;20025;-78
2021/06/02 04:18:46;;;;;;;4.68;2.10;;;17.10;60.50;;;;;;5049658;28;20042;-77
2021/06/02 04:21:18;;;;;;;1.98;1.70;;;17.00;61.80;;;;;;5059058;28;20047;-77
2021/06/02 04:23:46;;;;;;;5.20;2.13;;;17.10;62.10;;;;;;5057285;28;20341;-77
2021/06/02 04:26:13;;;;;;;3.35;2.30;;;16.90;61.80;;;;;;5063818;28;20264;-79
2021/06/02 04:28:40;;;;;;;1.80;1.70;;;16.80;61.80;;;;;;5055302;28;20028;-79
2021/06/02 04:31:14;;;;;;;1.65;1.20;;;16.90;62.00;;;;;;5056777;28;20020;-76
2021/06/02 04:33:43;;;;;;;3.72;1.98;;;16.90;61.70;;;;;;5065812;28;20028;-77
2021/06/02 04:36:13;;;;;;;4.22;1.70;;;16.80;61.40;;;;;;5055854;28;20025;-78
2021/06/02 04:38:40;;;;;;;5.25;1.42;;;16.80;61.30;;;;;;5071063;28;20032;-77
2021/06/02 04:41:09;;;;;;;6.65;1.40;;;16.70;61.70;;;;;;5049920;28;20017;-76
2021/06/02 04:43:37;;;;;;;8.45;2.72;;;16.80;61.10;;;;;;5050423;28;20059;-76
2021/06/02 04:46:07;;;;;;;2.72;1.38;;;16.70;62.10;;;;;;5050436;28;20040;-77
2021/06/02 04:48:34;;;;;;;2.92;1.40;;;16.60;62.70;;;;;;5073400;28;20020;-77
2021/06/02 04:51:15;;;;;;;2.90;1.70;;;16.50;62.70;;;;;;5069968;28;20371;-77
2021/06/02 04:54:21;;;;;;;6.65;2.25;;;16.50;62.30;;;;;;5065120;28;20027;-77
2021/06/02 04:57:29;;;;;;;3.67;1.48;;;16.70;62.00;;;;;;5073036;28;20052;-77
2021/06/02 05:00:43;;;;;;;2.10;1.90;;;16.50;61.50;;;;;;5050390;28;20047;-77
2021/06/02 05:04:03;;;;;;;2.38;1.67;;;16.50;63.90;;;;;;5053256;28;20107;-77
2021/06/02 05:07:00;;;;;;;2.17;1.60;;;16.60;62.10;;;;;;4990035;28;20117;-76
2021/06/02 05:10:03;;;;;;;2.67;1.52;;;16.40;62.40;;;;;;5073637;28;20426;-78
2021/06/02 05:13:06;;;;;;;4.40;1.58;;;16.40;61.70;;;;;;5063241;28;20043;-76
2021/06/02 05:16:00;;;;;;;1.52;1.42;;;16.70;62.40;;;;;;5063789;28;20028;-77
2021/06/02 05:19:15;;;;;;;1.80;1.33;;;16.50;62.60;;;;;;5055008;28;20085;-77
2021/06/02 05:22:29;;;;;;;1.50;1.40;;;16.40;62.20;;;;;;5005762;28;1930012;-76
2021/06/02 05:25:33;;;;;;;2.80;1.85;;;16.50;62.20;;;;;;5047954;28;20033;-77
2021/06/02 05:28:18;;;;;;;1.17;1.08;;;16.40;61.70;;;;;;5063805;28;20020;-77
2021/06/02 05:31:03;;;;;;;5.47;1.90;;;16.30;63.20;;;;;;5067410;28;20032;-77
2021/06/02 05:33:38;;;;;;;5.13;2.08;;;16.20;62.10;;;;;;5070631;28;20116;-78
2021/06/02 05:36:18;;;;;;;2.05;1.35;;;16.20;63.20;;;;;;5071842;28;20036;-77
2021/06/02 05:39:12;;;;;;;1.77;1.58;;;15.90;66.00;;;;;;5073011;28;20028;-77
2021/06/02 05:42:25;;;;;;;1.58;1.20;;;16.00;64.70;;;;;;5049289;28;20029;-77
2021/06/02 05:45:27;;;;;;;2.13;1.50;;;16.00;63.00;;;;;;5044671;28;20412;-78
2021/06/02 05:48:17;;;;;;;4.45;1.42;;;16.20;63.70;;;;;;5006850;28;20026;-77
2021/06/02 05:51:15;;;;;;;3.97;1.23;;;16.20;62.20;;;;;;5067408;28;20082;-77
2021/06/02 05:54:05;;;;;;;2.25;1.42;;;16.00;65.70;;;;;;5053191;28;20025;-77
2021/06/02 05:57:09;;;;;;;3.13;1.90;;;15.90;63.70;;;;;;5067328;28;20029;-76
2021/06/02 05:59:56;;;;;;;2.53;1.42;;;16.10;63.50;;;;;;5064380;28;20020;-77
2021/06/02 06:02:47;;;;;;;1.05;1.05;;;16.10;62.60;;;;;;5068351;28;20024;-77
2021/06/02 06:05:33;;;;;;;1.38;1.27;;;16.00;63.60;;;;;;5068776;28;20032;-77
2021/06/02 06:08:36;;;;;;;2.25;1.20;;;16.20;63.80;;;;;;5063257;28;20054;-77
2021/06/02 06:11:50;;;;;;;1.55;1.08;;;16.10;63.00;;;;;;5048535;28;20039;-77
2021/06/02 06:14:35;;;;;;;1.50;1.27;;;16.00;62.90;;;;;;5062956;28;20063;-77
2021/06/02 06:17:36;;;;;;;2.92;1.60;;;16.20;64.30;;;;;;5066137;28;20384;-78
2021/06/02 06:20:18;;;;;;;1.75;1.65;;;16.00;62.90;;;;;;5073520;28;20025;-78
2021/06/02 06:23:24;;;;;;;2.15;1.42;;;15.90;63.10;;;;;;5067183;28;20036;-78
2021/06/02 06:26:18;;;;;;;1.90;1.67;;;16.00;64.00;;;;;;5065626;28;20024;-77
2021/06/02 06:29:03;;;;;;;2.13;1.92;;;15.90;64.60;;;;;;5068507;28;20075;-77
2021/06/02 06:31:35;;;;;;;2.78;1.25;;;15.90;63.90;;;;;;5049570;28;20043;-78
2021/06/02 06:34:08;;;;;;;2.92;1.55;;;15.80;64.30;;;;;;5051835;28;20468;-78
2021/06/02 06:36:36;;;;;;;1.65;1.20;;;15.80;65.10;;;;;;5046388;28;20119;-78
2021/06/02 06:39:44;;;;;;;2.55;1.25;;;15.90;64.60;;;;;;5073051;28;20074;-78
2021/06/02 06:42:13;;;;;;;1.40;1.30;;;15.80;64.40;;;;;;5063939;28;20040;-77
2021/06/02 06:44:45;;;;;;;1.35;1.25;;;15.80;65.00;;;;;;5071548;28;20033;-78
2021/06/02 06:47:15;;;;;;;1.70;1.60;;;15.70;65.20;;;;;;5071579;28;20031;-78
2021/06/02 06:49:48;;;;;;;1.42;0.98;;;15.50;65.40;;;;;;5066415;28;20357;-77
2021/06/02 06:52:16;;;;;;;1.65;0.95;;;15.40;65.10;;;;;;5073043;28;20033;-78
2021/06/02 06:54:43;;;;;;;2.78;1.40;;;15.30;65.00;;;;;;5055233;28;20792;-78
2021/06/02 06:57:09;;;;;;;2.30;1.40;;;15.30;64.90;;;;;;5066155;28;20059;-78
2021/06/02 06:59:38;;;;;;;1.00;1.00;;;15.50;65.40;;;;;;5065292;28;20019;-78
2021/06/02 07:02:05;;;;;;;2.33;1.77;;;15.60;65.50;;;;;;5066960;28;20029;-78
2021/06/02 07:04:33;;;;;;;1.30;1.20;;;15.60;64.80;;;;;;5069191;28;20032;-78
2021/06/02 07:07:00;;;;;;;0.98;0.98;;;15.50;65.20;;;;;;5068857;28;20089;-78
2021/06/02 07:09:26;;;;;;;1.83;1.73;;;15.40;65.90;;;;;;5062339;28;20021;-77
2021/06/02 07:11:58;;;;;;;1.40;1.30;;;15.50;65.60;;;;;;5072063;28;20025;-78
2021/06/02 07:14:28;;;;;;;0.93;0.93;;;15.20;65.70;;;;;;5072262;28;20111;-78
2021/06/02 07:17:03;;;;;;;1.45;0.98;;;15.30;65.10;;;;;;5048188;28;20044;-77
2021/06/02 07:19:31;;;;;;;2.33;2.13;;;15.40;66.00;;;;;;5048524;28;20058;-79
2021/06/02 07:21:58;;;;;;;1.05;1.05;;;15.50;65.80;;;;;;5046429;28;20060;-79
2021/06/02 07:24:26;;;;;;;1.02;0.93;;;15.50;65.90;;;;;;5054144;28;20112;-78
2021/06/02 07:26:53;;;;;;;1.10;1.10;;;15.50;66.00;;;;;;5053280;28;20021;-77
2021/06/02 07:29:20;;;;;;;2.17;1.20;;;15.40;65.20;;;;;;5062144;28;20107;-78
2021/06/02 07:31:46;;;;;;;3.30;1.02;;;15.30;65.60;;;;;;5050458;28;20038;-77
2021/06/02 07:34:13;;;;;;;1.00;1.00;;;15.30;65.70;;;;;;5062146;28;20082;-78
2021/06/02 07:36:39;;;;;;;1.27;1.17;;;15.20;65.50;;;;;;5067712;28;20166;-77
2021/06/02 07:39:06;;;;;;;0.95;0.93;;;15.00;66.10;;;;;;5066661;28;20020;-77
2021/06/02 07:41:32;;;;;;;1.17;1.15;;;15.00;66.30;;;;;;5068943;28;20052;-78
2021/06/02 07:43:59;;;;;;;1.65;1.23;;;15.00;66.30;;;;;;5066331;28;20032;-78
2021/06/02 07:46:25;;;;;;;0.90;0.90;;;15.10;66.00;;;;;;5071737;28;20161;-78
2021/06/02 07:48:52;;;;;;;1.40;1.13;;;15.00;65.90;;;;;;5073181;28;20063;-78
2021/06/02 07:51:18;;;;;;;1.08;1.00;;;15.10;66.10;;;;;;5069879;28;20468;-78
2021/06/02 07:53:45;;;;;;;1.42;1.00;;;15.00;65.50;;;;;;5061675;28;20029;-78
2021/06/02 07:56:11;;;;;;;2.55;1.45;;;14.90;65.90;;;;;;5061014;28;21311;-77
2021/06/02 07:58:39;;;;;;;1.80;1.70;;;15.10;65.90;;;;;;5069032;28;20017;-78
2021/06/02 08:01:05;;;;;;;1.42;1.33;;;15.10;65.80;;;;;;5071161;28;20024;-78
2021/06/02 08:03:32;;;;;;;1.80;1.27;;;15.10;66.30;;;;;;5069122;28;20070;-79
2021/06/02 08:05:58;;;;;;;1.10;1.05;;;15.10;66.00;;;;;;5070637;28;20025;-78
2021/06/02 08:08:25;;;;;;;1.20;1.10;;;15.10;66.00;;;;;;5066898;28;20082;-78
2021/06/02 08:10:51;;;;;;;1.30;1.20;;;15.30;66.30;;;;;;5071644;28;20033;-78
2021/06/02 08:13:17;;;;;;;1.35;1.35;;;15.30;66.00;;;;;;5067593;28;20029;-78
2021/06/02 08:15:44;;;;;;;1.60;1.50;;;15.10;67.60;;;;;;5068684;28;20105;-77
2021/06/02 08:18:10;;;;;;;2.85;1.40;;;15.30;67.30;;;;;;5072355;28;20060;-79
2021/06/02 08:20:37;;;;;;;1.73;1.42;;;15.30;66.80;;;;;;5079332;28;20535;-78
2021/06/02 08:23:03;;;;;;;2.53;1.27;;;15.30;67.10;;;;;;5079487;28;20088;-79
2021/06/02 08:25:30;;;;;;;3.03;1.27;;;15.30;66.80;;;;;;5072867;28;20044;-78
2021/06/02 08:27:56;;;;;;;2.08;1.20;;;15.40;66.80;;;;;;5072521;28;20081;-78
2021/06/02 08:30:23;;;;;;;1.33;1.23;;;15.40;66.90;;;;;;5086305;28;20059;-77
2021/06/02 08:32:50;;;;;;;1.58;1.33;;;15.30;66.50;;;;;;5087013;28;20054;-78
2021/06/02 08:35:18;;;;;;;1.27;1.20;;;15.40;66.90;;;;;;5093419;28;20016;-77
2021/06/02 08:37:45;;;;;;;2.60;1.23;;;15.20;67.50;;;;;;5079325;28;20009;-78
2021/06/02 08:40:15;;;;;;;1.92;1.25;;;15.40;66.80;;;;;;5091176;28;20039;-77
2021/06/02 08:42:47;;;;;;;1.60;1.50;;;15.30;66.90;;;;;;5078854;28;20033;-78
2021/06/02 08:45:15;;;;;;;2.55;1.10;;;15.30;67.30;;;;;;5072319;28;20036;-78
2021/06/02 08:47:42;;;;;;;7.35;1.83;;;15.20;66.90;;;;;;5073829;28;20027;-77
2021/06/02 08:50:13;;;;;;;1.20;1.00;;;15.40;66.50;;;;;;5072636;28;20056;-77
2021/06/02 08:52:40;;;;;;;0.80;0.80;;;15.40;66.70;;;;;;5063043;28;20380;-77
2021/06/02 08:55:10;;;;;;;5.18;1.52;;;15.30;66.20;;;;;;5067592;28;20044;-77
2021/06/02 08:57:41;;;;;;;1.92;1.30;;;15.30;66.30;;;;;;5073167;28;20024;-77
2021/06/02 09:00:11;;;;;;;2.00;0.88;;;15.30;66.80;;;;;;5050215;28;20425;-78
2021/06/02 09:02:42;;;;;;;2.05;1.30;;;15.00;67.20;;;;;;5066335;28;20030;-77
2021/06/02 09:05:09;;;;;;;1.03;0.90;;;14.90;67.20;;;;;;5075681;28;20028;-78
2021/06/02 09:07:40;;;;;;;1.33;1.13;;;14.70;66.90;;;;;;5070121;28;20456;-77
2021/06/02 09:10:11;;;;;;;1.42;1.33;;;14.70;67.90;;;;;;5064058;28;20040;-77
2021/06/02 09:12:42;;;;;;;2.13;1.58;;;14.90;67.00;;;;;;5067498;28;20416;-77
2021/06/02 09:15:15;;;;;;;2.17;1.13;;;14.90;67.60;;;;;;5064502;28;20045;-77
2021/06/02 09:17:56;;;;;;;1.02;0.98;;;14.70;67.30;;;;;;5062525;28;20111;-77
2021/06/02 09:20:49;;;;;;;1.02;1.02;;;14.80;67.20;;;;;;5069758;28;20040;-77
2021/06/02 09:23:43;;;;;;;0.80;0.80;;;14.70;67.80;;;;;;5057581;28;20559;-77
2021/06/02 09:26:35;;;;;;;0.98;0.98;;;14.60;67.50;;;;;;5061200;28;20029;-77
2021/06/02 09:29:10;;;;;;;0.93;0.93;;;14.70;67.70;;;;;;5049351;28;20032;-78
2021/06/02 09:31:44;;;;;;;1.25;1.20;;;14.90;67.90;;;;;;5067163;28;20021;-77
2021/06/02 09:34:19;;;;;;;0.80;0.80;;;14.80;67.70;;;;;;5047586;28;20062;-77
2021/06/02 09:36:49;;;;;;;3.05;1.10;;;14.70;67.70;;;;;;5060825;28;20025;-77
2021/06/02 09:39:18;;;;;;;0.95;0.95;;;14.90;68.10;;;;;;5057722;28;20025;-77
2021/06/02 09:41:52;;;;;;;1.05;0.98;;;14.80;68.90;;;;;;5074249;28;20032;-77
2021/06/02 09:44:20;;;;;;;1.33;1.23;;;14.70;67.90;;;;;;5049011;28;20044;-77
2021/06/02 09:47:05;;;;;;;1.08;1.08;;;15.00;68.30;;;;;;5070792;28;20017;-78
2021/06/02 09:49:55;;;;;;;1.58;1.30;;;14.90;67.60;;;;;;5056700;28;20052;-78
2021/06/02 09:52:48;;;;;;;1.27;0.95;;;14.90;68.20;;;;;;5055393;28;20333;-78
2021/06/02 09:55:26;;;;;;;0.95;0.95;;;15.00;67.80;;;;;;5069830;28;20484;-78
2021/06/02 09:58:02;;;;;;;0.98;0.98;;;15.00;67.70;;;;;;5070819;28;20024;-78
2021/06/02 10:00:29;;;;;;;2.45;1.27;;;15.10;67.70;;;;;;5055585;28;20029;-77
2021/06/02 10:03:00;;;;;;;1.58;1.10;;;15.00;68.00;;;;;;5068338;28;20459;-78
2021/06/02 10:05:47;;;;;;;0.80;0.80;;;14.90;67.60;;;;;;5072963;28;20475;-78
2021/06/02 10:08:35;;;;;;;0.70;0.70;;;15.00;67.50;;;;;;5067524;28;20037;-78
2021/06/02 10:11:13;;;;;;;1.15;1.08;;;14.80;68.20;;;;;;5068223;28;20511;-77
2021/06/02 10:13:40;;;;;;;0.88;0.88;;;15.00;68.00;;;;;;5071012;28;20024;-78
2021/06/02 10:16:09;;;;;;;1.52;1.23;;;14.90;68.50;;;;;;5064609;28;20441;-78
2021/06/02 10:18:38;;;;;;;1.38;1.05;;;15.20;67.60;;;;;;5055788;28;20078;-78
2021/06/02 10:21:09;;;;;;;3.03;1.00;;;15.00;67.90;;;;;;5068618;28;20111;-78
2021/06/02 10:23:42;;;;;;;0.90;0.90;;;15.00;67.70;;;;;;5055848;28;20107;-79
2021/06/02 10:26:11;;;;;;;0.70;0.70;;;15.00;67.40;;;;;;5072399;28;20028;-77
2021/06/02 10:28:38;;;;;;;0.90;0.90;;;15.00;67.70;;;;;;5067676;28;20032;-77
2021/06/02 10:31:06;;;;;;;0.85;0.85;;;14.90;68.20;;;;;;5066013;28;20025;-77
2021/06/02 10:33:33;;;;;;;0.90;0.90;;;15.00;68.10;;;;;;5049519;28;20365;-77
2021/06/02 10:36:02;;;;;;;1.10;1.00;;;15.00;68.50;;;;;;5068372;28;20028;-78
2021/06/02 10:38:41;;;;;;;1.13;1.10;;;15.00;68.30;;;;;;5072565;28;20040;-78
2021/06/02 10:41:09;;;;;;;1.20;1.10;;;15.00;68.10;;;;;;5073649;28;20024;-78
2021/06/02 10:43:42;;;;;;;1.00;1.00;;;14.70;68.00;;;;;;5070559;28;20127;-78
2021/06/02 10:46:14;;;;;;;0.90;0.90;;;14.80;68.70;;;;;;5065834;28;20414;-77
2021/06/02 10:48:53;;;;;;;1.20;1.10;;;14.90;68.60;;;;;;5071331;28;20021;-78
2021/06/02 10:51:32;;;;;;;2.95;2.03;;;15.00;68.50;;;;;;5073751;28;20384;-78
2021/06/02 10:54:04;;;;;;;3.65;1.08;;;15.00;68.60;;;;;;5065638;28;20017;-77
2021/06/02 10:56:30;;;;;;;1.10;1.00;;;14.80;68.40;;;;;;5057784;28;20024;-77
2021/06/02 10:58:57;;;;;;;2.80;1.35;;;14.60;69.00;;;;;;5067643;28;20052;-78
2021/06/02 11:01:24;;;;;;;1.65;1.55;;;14.70;69.10;;;;;;5050369;28;20024;-78
2021/06/02 11:04:10;;;;;;;1.38;1.23;;;14.90;68.70;;;;;;5076123;28;20108;-78
2021/06/02 11:06:44;;;;;;;0.77;0.77;;;14.90;68.20;;;;;;5069106;28;20091;-78
2021/06/02 11:09:12;;;;;;;1.00;1.00;;;14.70;68.30;;;;;;5070834;28;20051;-78
2021/06/02 11:11:46;;;;;;;1.33;1.23;;;14.70;68.90;;;;;;5075059;28;20452;-78
2021/06/02 11:14:16;;;;;;;1.00;1.00;;;14.60;68.30;;;;;;5073698;28;20110;-77
2021/06/02 11:16:48;;;;;;;4.13;1.30;;;14.60;68.70;;;;;;5049585;28;20036;-77
2021/06/02 11:19:20;;;;;;;1.95;0.95;;;14.70;69.40;;;;;;5058240;28;20037;-77
2021/06/02 11:21:55;;;;;;;1.30;0.93;;;14.80;69.20;;;;;;5059076;28;20033;-78
2021/06/02 11:24:41;;;;;;;17.60;1.48;;;14.70;69.10;;;;;;5076101;28;20350;-77
2021/06/02 11:27:14;;;;;;;1.35;1.00;;;14.60;68.70;;;;;;5068969;28;20096;-78
2021/06/02 11:32:33;;;;;;;3.08;1.10;;;14.70;69.40;;;;;;5083865;28;20035;-78
2021/06/02 11:35:06;;;;;;;1.67;1.00;;;14.50;69.20;;;;;;5072589;28;20464;-77
2021/06/02 11:37:35;;;;;;;3.78;1.10;;;14.60;70.00;;;;;;5074385;28;20444;-78
2021/06/02 11:40:05;;;;;;;1.55;1.45;;;14.60;70.00;;;;;;5062808;28;20031;-78
2021/06/02 11:42:38;;;;;;;1.77;1.25;;;14.60;70.10;;;;;;5080903;28;20486;-77
2021/06/02 11:45:10;;;;;;;8.60;1.60;;;14.40;69.40;;;;;;5075993;28;20067;-78
2021/06/02 11:47:41;;;;;;;1.13;1.02;;;14.40;70.10;;;;;;5076446;28;20025;-78
2021/06/02 11:50:16;;;;;;;0.85;0.85;;;14.40;70.10;;;;;;5050293;28;20453;-77
2021/06/02 11:52:44;;;;;;;0.90;0.90;;;14.40;69.90;;;;;;5073618;28;20024;-77
2021/06/02 11:55:15;;;;;;;0.85;0.85;;;14.40;70.60;;;;;;5075305;28;20020;-78
2021/06/02 11:57:46;;;;;;;1.95;1.13;;;14.60;70.30;;;;;;5076353;28;20047;-77
2021/06/02 12:00:15;;;;;;;1.00;0.90;;;14.50;69.90;;;;;;5053351;28;20032;-77
2021/06/02 12:02:42;;;;;;;0.80;0.80;;;14.70;69.80;;;;;;5070958;28;20020;-77
2021/06/02 12:05:26;;;;;;;2.20;1.13;;;14.60;69.60;;;;;;5065488;28;20032;-77
2021/06/02 12:07:56;;;;;;;0.90;0.90;;;14.50;69.90;;;;;;5064624;28;20028;-77
2021/06/02 12:10:26;;;;;;;1.45;1.30;;;14.50;69.80;;;;;;5067205;28;20025;-78
2021/06/02 12:12:52;;;;;;;0.88;0.88;;;14.50;69.90;;;;;;5053629;28;20464;-78
2021/06/02 12:15:19;;;;;;;0.80;0.80;;;14.60;69.40;;;;;;5071822;28;20028;-78
2021/06/02 12:17:48;;;;;;;4.32;1.13;;;14.60;69.50;;;;;;5068692;28;20024;-77
2021/06/02 12:20:21;;;;;;;1.08;1.08;;;14.60;69.20;;;;;;5066747;28;20048;-77
2021/06/02 12:22:48;;;;;;;1.65;1.35;;;14.60;69.40;;;;;;5071737;28;20098;-79
2021/06/02 12:25:16;;;;;;;2.17;1.00;;;14.40;70.00;;;;;;5072122;28;20039;-77
2021/06/02 12:27:50;;;;;;;1.35;1.10;;;14.40;69.90;;;;;;5074694;28;20044;-76
2021/06/02 12:30:19;;;;;;;1.00;1.00;;;14.50;69.80;;;;;;5073702;28;20108;-77
2021/06/02 12:32:50;;;;;;;1.60;1.50;;;14.40;69.70;;;;;;5069114;28;20024;-77
2021/06/02 12:35:38;;;;;;;1.08;1.00;;;14.40;69.50;;;;;;5070633;28;20028;-77
2021/06/02 12:38:18;;;;;;;1.55;1.13;;;14.40;69.60;;;;;;5076899;28;20035;-77
2021/06/02 12:40:48;;;;;;;1.08;1.08;;;14.50;69.80;;;;;;5053779;28;20478;-77
2021/06/02 12:43:17;;;;;;;0.80;0.80;;;14.30;69.50;;;;;;5075733;28;20028;-78
2021/06/02 12:45:45;;;;;;;0.90;0.90;;;14.20;69.70;;;;;;5069034;28;20467;-76
2021/06/02 12:48:15;;;;;;;5.07;1.60;;;14.30;69.60;;;;;;5066920;28;20479;-77
2021/06/02 12:50:46;;;;;;;1.05;1.05;;;14.30;68.80;;;;;;5044137;28;20029;-77
2021/06/02 12:53:14;;;;;;;0.98;0.98;;;14.20;69.40;;;;;;5068176;28;20025;-77
2021/06/02 12:55:44;;;;;;;1.63;1.17;;;14.20;69.40;;;;;;5064700;28;20027;-77
2021/06/02 12:58:15;;;;;;;0.85;0.85;;;14.20;69.00;;;;;;5070413;28;20043;-77
2021/06/02 13:00:43;;;;;;;0.90;0.90;;;14.20;69.20;;;;;;5069234;28;20020;-78
2021/06/02 13:03:13;;;;;;;1.10;1.10;;;14.10;69.30;;;;;;5061555;28;20367;-77
2021/06/02 13:05:43;;;;;;;0.90;0.90;;;14.10;69.90;;;;;;5072037;28;20390;-77
2021/06/02 13:08:10;;;;;;;1.75;1.10;;;14.10;69.90;;;;;;5072189;28;20033;-77
2021/06/02 13:10:39;;;;;;;1.00;1.00;;;14.10;69.70;;;;;;5070559;28;20028;-77
2021/06/02 13:13:07;;;;;;;6.68;1.08;;;14.10;70.10;;;;;;5068667;28;20021;-78
2021/06/02 13:15:37;;;;;;;0.95;0.95;;;14.20;69.70;;;;;;5072879;28;20121;-76
2021/06/02 13:18:06;;;;;;;1.05;1.05;;;14.10;70.10;;;;;;5051090;28;20143;-77
2021/06/02 13:20:36;;;;;;;0.93;0.93;;;14.00;69.70;;;;;;5053899;28;20483;-78
2021/06/02 13:23:11;;;;;;;0.98;0.98;;;14.10;70.10;;;;;;5051561;28;20352;-78
2021/06/02 13:25:37;;;;;;;1.05;1.05;;;14.10;69.90;;;;;;5071268;28;20027;-77
2021/06/02 13:28:09;;;;;;;0.90;0.90;;;14.00;70.20;;;;;;5075207;28;20020;-77
2021/06/02 13:30:48;;;;;;;1.00;1.00;;;14.10;70.40;;;;;;5046327;28;20025;-77
2021/06/02 13:33:15;;;;;;;1.25;0.95;;;14.10;70.20;;;;;;5053273;28;20035;-77
2021/06/02 13:35:44;;;;;;;1.10;1.10;;;14.10;70.40;;;;;;5065968;28;20112;-78
2021/06/02 13:38:11;;;;;;;0.90;0.90;;;14.00;70.20;;;;;;5053109;28;20028;-77
2021/06/02 13:40:39;;;;;;;1.08;1.08;;;14.10;70.40;;;;;;5054085;28;20489;-77